createdAt,value
2018-07-17T00:00:07.321Z,99.90
2018-07-17T00:02:36.567Z,99.90
2018-07-17T00:05:06.613Z,99.90
2018-07-17T00:07:36.212Z,99.90
2018-07-17T00:10:05.852Z,99.90
2018-07-17T00:12:34.477Z,99.90
2018-07-17T00:15:03.097Z,99.90
2018-07-17T00:17:32.128Z,99.90
2018-07-17T00:20:00.665Z,99.90
2018-07-17T00:22:29.841Z,99.90
2018-07-17T00:24:58.894Z,99.90
2018-07-17T00:27:27.439Z,99.90
2018-07-17T00:29:56.928Z,99.90
2018-07-17T00:32:25.494Z,99.90
2018-07-17T00:34:54.037Z,99.90
2018-07-17T00:39:50.818Z,99.90
2018-07-17T00:44:47.533Z,99.90
2018-07-17T00:47:16.090Z,99.90
2018-07-17T00:49:44.627Z,99.90
2018-07-17T00:54:41.946Z,99.90
2018-07-17T00:57:10.476Z,99.90
2018-07-17T00:59:39.030Z,99.90
2018-07-17T01:02:13.074Z,99.90
2018-07-17T01:07:20.615Z,99.90
2018-07-17T01:09:54.517Z,99.90
2018-07-17T01:12:22.262Z,99.90
2018-07-17T01:14:55.229Z,99.90
2018-07-17T01:17:24.469Z,99.90
2018-07-17T01:19:52.975Z,99.90
2018-07-17T01:22:21.530Z,99.90
2018-07-17T01:24:50.103Z,99.90
2018-07-17T01:29:46.849Z,99.90
2018-07-17T01:34:43.604Z,99.90
2018-07-17T01:37:12.176Z,99.90
2018-07-17T01:39:40.716Z,99.90
2018-07-17T01:42:09.270Z,99.90
2018-07-17T01:44:37.831Z,99.90
2018-07-17T01:47:06.369Z,99.90
2018-07-17T01:49:34.901Z,99.90
2018-07-17T01:52:03.485Z,99.90
2018-07-17T01:54:32.041Z,99.90
2018-07-17T01:57:00.578Z,99.90
2018-07-17T02:01:57.334Z,99.90
2018-07-17T02:06:54.107Z,99.90
2018-07-17T02:09:22.651Z,99.90
2018-07-17T02:11:51.181Z,99.90
2018-07-17T02:14:19.715Z,99.90
2018-07-17T02:16:48.257Z,99.90
2018-07-17T02:19:16.805Z,99.90
2018-07-17T02:24:13.611Z,99.90
2018-07-17T02:26:42.128Z,99.90
2018-07-17T02:29:10.699Z,99.90
2018-07-17T02:31:39.353Z,99.90
2018-07-17T02:34:07.970Z,99.90
2018-07-17T02:36:36.569Z,99.90
2018-07-17T02:39:06.742Z,99.90
2018-07-17T02:41:35.910Z,99.90
2018-07-17T02:44:04.512Z,99.90
2018-07-17T02:46:33.054Z,99.90
2018-07-17T02:49:01.638Z,99.90
2018-07-17T02:51:30.159Z,99.90
2018-07-17T02:53:58.793Z,99.90
2018-07-17T02:56:27.321Z,99.90
2018-07-17T03:01:24.214Z,99.90
2018-07-17T03:03:52.789Z,99.90
2018-07-17T03:06:21.353Z,99.90
2018-07-17T03:11:18.241Z,99.90
2018-07-17T03:13:46.801Z,99.90
2018-07-17T03:16:15.333Z,99.90
2018-07-17T03:18:43.928Z,99.90
2018-07-17T03:21:12.454Z,99.90
2018-07-17T03:23:41.054Z,99.90
2018-07-17T03:26:09.577Z,99.90
2018-07-17T03:28:38.133Z,99.90
2018-07-17T03:31:06.679Z,99.90
2018-07-17T03:36:03.449Z,99.90
2018-07-17T03:41:00.234Z,99.90
2018-07-17T03:43:28.761Z,99.90
2018-07-17T03:45:57.354Z,99.90
2018-07-17T03:48:25.886Z,99.90
2018-07-17T03:50:54.454Z,99.90
2018-07-17T03:53:22.980Z,99.90
2018-07-17T03:55:52.113Z,99.90
2018-07-17T03:58:20.648Z,99.90
2018-07-17T04:00:49.224Z,99.90
2018-07-17T04:03:17.761Z,99.90
2018-07-17T04:08:15.585Z,99.90
2018-07-17T04:10:44.195Z,99.90
2018-07-17T04:13:12.719Z,99.90
2018-07-17T04:18:09.459Z,99.90
2018-07-17T04:20:38.129Z,99.90
2018-07-17T04:23:07.124Z,99.90
2018-07-17T04:25:36.667Z,99.90
2018-07-17T04:30:33.481Z,99.90
2018-07-17T04:33:02.569Z,99.90
2018-07-17T04:35:31.652Z,99.90
2018-07-17T04:38:00.197Z,99.90
2018-07-17T04:42:56.951Z,99.90
2018-07-17T04:45:25.578Z,99.90
2018-07-17T04:47:54.140Z,99.90
2018-07-17T04:50:22.695Z,99.90
2018-07-17T04:52:51.219Z,99.90
2018-07-17T04:55:20.480Z,99.90
2018-07-17T04:57:49.121Z,99.90
2018-07-17T05:00:17.670Z,99.90
2018-07-17T05:05:14.445Z,99.90
2018-07-17T05:07:42.989Z,99.90
2018-07-17T05:10:11.530Z,99.90
2018-07-17T05:12:40.068Z,99.90
2018-07-17T05:15:08.657Z,99.90
2018-07-17T05:22:34.649Z,99.90
2018-07-17T05:25:06.021Z,99.90
2018-07-17T05:27:34.618Z,99.90
2018-07-17T05:30:03.261Z,99.90
2018-07-17T05:32:31.800Z,99.90
2018-07-17T05:35:00.904Z,99.90
2018-07-17T05:37:29.489Z,99.90
2018-07-17T05:39:58.363Z,99.90
2018-07-17T05:42:27.005Z,99.90
2018-07-17T05:44:55.631Z,99.90
2018-07-17T05:47:26.101Z,99.90
2018-07-17T05:49:54.708Z,99.90
2018-07-17T05:52:23.867Z,98.80
2018-07-17T05:54:53.050Z,97.50
2018-07-17T05:57:22.214Z,97.70
2018-07-17T05:59:50.899Z,97.10
2018-07-17T06:02:19.461Z,96.80
2018-07-17T06:04:48.717Z,96.30
2018-07-17T06:07:17.353Z,95.80
2018-07-17T06:09:45.968Z,95.20
2018-07-17T06:12:14.555Z,95.80
2018-07-17T06:14:43.198Z,96.00
2018-07-17T06:17:11.945Z,97.30
2018-07-17T06:19:40.514Z,97.30
2018-07-17T06:22:09.320Z,97.90
2018-07-17T06:24:38.473Z,97.70
2018-07-17T06:27:07.133Z,97.30
2018-07-17T06:32:04.018Z,99.10
2018-07-17T06:34:32.619Z,99.20
2018-07-17T06:37:01.189Z,99.80
2018-07-17T06:39:29.756Z,99.90
2018-07-17T06:44:27.410Z,99.90
2018-07-17T06:46:58.856Z,99.90
2018-07-17T06:49:27.466Z,99.90
2018-07-17T06:51:56.757Z,99.90
2018-07-17T06:54:25.332Z,99.90
2018-07-17T06:56:54.298Z,99.90
2018-07-17T06:59:24.196Z,99.90
2018-07-17T07:01:52.781Z,99.90
2018-07-17T07:04:21.401Z,99.90
2018-07-17T07:06:50.017Z,99.90
2018-07-17T07:11:46.979Z,99.90
2018-07-17T07:16:43.794Z,99.90
2018-07-17T07:19:12.361Z,99.40
2018-07-17T07:21:40.949Z,99.60
2018-07-17T07:24:09.604Z,99.50
2018-07-17T07:29:08.340Z,99.10
2018-07-17T07:31:36.941Z,99.30
2018-07-17T07:34:05.727Z,98.90
2018-07-17T07:36:35.268Z,99.60
2018-07-17T07:39:06.070Z,99.50
2018-07-17T07:41:34.740Z,99.00
2018-07-17T07:44:03.386Z,98.70
2018-07-17T07:49:00.217Z,98.10
2018-07-17T07:51:29.124Z,98.10
2018-07-17T07:53:57.665Z,98.20
2018-07-17T07:56:26.498Z,97.80
2018-07-17T07:59:00.881Z,97.70
2018-07-17T08:04:00.594Z,98.00
2018-07-17T08:08:57.253Z,97.50
2018-07-17T08:11:25.990Z,97.70
2018-07-17T08:13:54.766Z,97.50
2018-07-17T08:18:53.481Z,97.40
2018-07-17T08:21:22.409Z,96.90
2018-07-17T08:23:51.892Z,97.50
2018-07-17T08:26:20.459Z,97.70
2018-07-17T08:28:49.047Z,97.20
2018-07-17T08:31:18.142Z,97.00
2018-07-17T08:33:47.225Z,96.60
2018-07-17T08:36:15.806Z,96.20
2018-07-17T08:38:45.161Z,96.20
2018-07-17T08:41:14.369Z,96.00
2018-07-17T08:43:47.266Z,95.90
2018-07-17T08:46:15.869Z,96.00
2018-07-17T08:48:45.055Z,95.90
2018-07-17T08:51:13.677Z,95.60
2018-07-17T08:53:42.261Z,95.00
2018-07-17T08:56:11.621Z,95.20
2018-07-17T08:58:40.165Z,95.10
2018-07-17T09:01:09.225Z,94.80
2018-07-17T09:03:37.779Z,95.00
2018-07-17T09:06:07.517Z,94.90
2018-07-17T09:08:36.236Z,93.90
2018-07-17T09:11:04.879Z,93.60
2018-07-17T09:13:33.490Z,93.50
2018-07-17T09:16:05.624Z,94.10
2018-07-17T09:18:34.849Z,93.70
2018-07-17T09:21:03.838Z,94.20
2018-07-17T09:23:32.520Z,93.00
2018-07-17T09:26:01.096Z,92.70
2018-07-17T09:28:30.264Z,92.00
2018-07-17T09:30:59.616Z,92.20
2018-07-17T09:33:29.060Z,92.40
2018-07-17T09:35:57.775Z,91.70
2018-07-17T09:38:26.378Z,91.90
2018-07-17T09:40:55.065Z,92.50
2018-07-17T09:43:23.749Z,93.00
2018-07-17T09:45:52.309Z,92.70
2018-07-17T09:48:21.612Z,92.60
2018-07-17T09:50:50.197Z,91.90
2018-07-17T09:53:19.389Z,91.90
2018-07-17T09:55:48.481Z,92.30
2018-07-17T10:00:51.283Z,91.60
2018-07-17T10:03:19.868Z,91.70
2018-07-17T10:05:48.409Z,91.50
2018-07-17T10:08:16.975Z,91.60
2018-07-17T10:10:45.600Z,91.90
2018-07-17T10:15:42.516Z,92.40
2018-07-17T10:18:13.308Z,91.50
2018-07-17T10:23:10.813Z,91.10
2018-07-17T10:25:39.394Z,91.20
2018-07-17T10:28:07.998Z,91.00
2018-07-17T10:30:36.580Z,90.40
2018-07-17T10:33:05.899Z,90.70
2018-07-17T10:35:34.662Z,90.70
2018-07-17T10:38:03.383Z,90.50
2018-07-17T10:40:31.965Z,90.00
2018-07-17T10:43:00.535Z,89.10
2018-07-17T10:45:29.069Z,88.00
2018-07-17T10:50:26.577Z,87.60
2018-07-17T10:52:55.117Z,87.00
2018-07-17T10:55:23.767Z,86.20
2018-07-17T10:57:53.715Z,83.30
2018-07-17T11:00:22.371Z,84.00
2018-07-17T11:02:55.942Z,82.50
2018-07-17T11:05:26.042Z,82.90
2018-07-17T11:07:54.649Z,82.90
2018-07-17T11:10:23.942Z,80.50
2018-07-17T11:12:55.695Z,82.20
2018-07-17T11:15:24.409Z,81.60
2018-07-17T11:17:52.993Z,82.30
2018-07-17T11:20:21.545Z,78.90
2018-07-17T11:27:46.569Z,70.20
2018-07-17T11:32:43.822Z,69.80
2018-07-17T11:35:12.544Z,67.30
2018-07-17T11:37:41.172Z,67.60
2018-07-17T11:40:10.633Z,69.80
2018-07-17T11:42:39.186Z,69.70
2018-07-17T11:45:07.733Z,74.00
2018-07-17T11:47:36.332Z,77.80
2018-07-17T11:50:06.198Z,76.20
2018-07-17T11:52:34.772Z,79.10
2018-07-17T11:57:31.589Z,79.90
2018-07-17T12:00:00.172Z,82.10
2018-07-17T12:02:28.773Z,83.30
2018-07-17T12:04:57.826Z,85.30
2018-07-17T12:07:27.887Z,88.10
2018-07-17T12:09:57.670Z,90.10
2018-07-17T12:12:26.262Z,90.30
2018-07-17T12:14:55.460Z,91.00
2018-07-17T12:17:24.085Z,90.60
2018-07-17T12:19:52.886Z,90.10
2018-07-17T12:22:21.368Z,87.70
2018-07-17T12:27:18.978Z,85.20
2018-07-17T12:29:48.598Z,82.30
2018-07-17T12:32:17.154Z,82.40
2018-07-17T12:34:47.128Z,81.60
2018-07-17T12:37:16.781Z,81.40
2018-07-17T12:39:45.724Z,79.80
2018-07-17T12:42:14.738Z,79.00
2018-07-17T12:44:46.265Z,76.80
2018-07-17T12:47:15.365Z,76.80
2018-07-17T12:49:44.989Z,75.10
2018-07-17T12:52:13.633Z,74.90
2018-07-17T12:54:42.424Z,76.50
2018-07-17T12:57:10.978Z,73.20
2018-07-17T13:04:37.093Z,69.60
2018-07-17T13:07:05.717Z,73.70
2018-07-17T13:12:04.645Z,71.90
2018-07-17T13:14:33.269Z,70.00
2018-07-17T13:17:02.369Z,69.70
2018-07-17T13:19:31.340Z,68.60
2018-07-17T13:21:59.927Z,69.30
2018-07-17T13:24:28.748Z,66.50
2018-07-17T13:26:57.357Z,67.80
2018-07-17T13:31:54.147Z,65.40
2018-07-17T13:34:22.734Z,65.10
2018-07-17T13:36:51.314Z,63.40
2018-07-17T13:39:20.063Z,62.70
2018-07-17T13:41:53.384Z,63.00
2018-07-17T13:44:22.273Z,64.20
2018-07-17T13:46:50.940Z,64.30
2018-07-17T13:49:19.530Z,64.90
2018-07-17T13:54:16.834Z,63.00
2018-07-17T13:56:45.515Z,62.30
2018-07-17T13:59:15.535Z,60.90
2018-07-17T14:01:44.174Z,60.60
2018-07-17T14:04:12.891Z,61.20
2018-07-17T14:09:10.753Z,61.50
2018-07-17T14:11:39.625Z,62.00
2018-07-17T14:14:08.799Z,62.30
2018-07-17T14:16:37.671Z,62.20
2018-07-17T14:19:06.617Z,64.80
2018-07-17T14:21:35.314Z,64.50
2018-07-17T14:24:04.007Z,72.70
2018-07-17T14:26:33.198Z,76.90
2018-07-17T14:29:01.769Z,78.60
2018-07-17T14:31:30.365Z,81.10
2018-07-17T14:33:59.706Z,82.70
2018-07-17T14:36:28.884Z,84.50
2018-07-17T14:41:25.685Z,84.40
2018-07-17T14:43:54.909Z,82.90
2018-07-17T14:46:23.457Z,81.90
2018-07-17T14:48:52.549Z,81.00
2018-07-17T14:51:21.685Z,78.40
2018-07-17T14:53:50.986Z,77.90
2018-07-17T14:56:20.335Z,77.90
2018-07-17T14:58:48.915Z,79.40
2018-07-17T15:06:13.865Z,84.00
2018-07-17T15:08:42.462Z,86.90
2018-07-17T15:11:11.058Z,87.70
2018-07-17T15:13:39.657Z,87.70
2018-07-17T15:16:08.824Z,89.40
2018-07-17T15:18:37.894Z,91.00
2018-07-17T15:23:34.672Z,92.70
2018-07-17T15:26:05.056Z,91.70
2018-07-17T15:28:33.660Z,91.20
2018-07-17T15:33:31.013Z,90.60
2018-07-17T15:36:00.183Z,90.00
2018-07-17T15:38:29.314Z,85.50
2018-07-17T15:40:57.837Z,85.30
2018-07-17T15:43:27.608Z,84.60
2018-07-17T15:45:56.205Z,84.50
2018-07-17T15:48:24.751Z,84.70
2018-07-17T15:50:54.069Z,81.70
2018-07-17T15:53:22.641Z,81.40
2018-07-17T15:55:51.790Z,80.40
2018-07-17T16:00:49.263Z,82.20
2018-07-17T16:05:46.077Z,82.80
2018-07-17T16:08:14.641Z,82.30
2018-07-17T16:10:43.854Z,84.90
2018-07-17T16:13:12.392Z,85.30
2018-07-17T16:15:41.570Z,86.20
2018-07-17T16:18:10.717Z,86.90
2018-07-17T16:20:39.314Z,84.10
2018-07-17T16:23:08.578Z,88.50
2018-07-17T16:25:37.154Z,90.80
2018-07-17T16:28:05.973Z,95.00
2018-07-17T16:30:34.555Z,96.50
2018-07-17T16:33:03.102Z,96.20
2018-07-17T16:37:59.866Z,98.40
2018-07-17T16:40:29.673Z,95.70
2018-07-17T16:45:26.456Z,98.50
2018-07-17T16:47:55.109Z,99.90
2018-07-17T16:50:23.657Z,99.90
2018-07-17T16:52:52.184Z,99.90
2018-07-17T16:57:48.974Z,99.90
2018-07-17T17:00:17.534Z,99.90
2018-07-17T17:05:15.176Z,99.90
2018-07-17T17:07:43.714Z,99.90
2018-07-17T17:10:12.286Z,99.90
2018-07-17T17:15:09.087Z,99.90
2018-07-17T17:17:37.624Z,99.90
2018-07-17T17:22:34.470Z,99.90
2018-07-17T17:25:03.086Z,99.90
2018-07-17T17:27:31.645Z,99.90
2018-07-17T17:30:01.222Z,99.90
2018-07-17T17:32:29.782Z,99.90
2018-07-17T17:34:58.483Z,99.90
2018-07-17T17:37:27.039Z,99.90
2018-07-17T17:39:55.746Z,99.90
2018-07-17T17:42:24.264Z,99.90
2018-07-17T17:44:55.314Z,99.90
2018-07-17T17:47:24.518Z,99.90
2018-07-17T17:49:53.101Z,99.90
2018-07-17T17:52:21.661Z,99.90
2018-07-17T17:54:50.340Z,99.90
2018-07-17T17:57:19.441Z,99.90
2018-07-17T17:59:48.041Z,99.90
2018-07-17T18:02:17.410Z,99.90
2018-07-17T18:04:46.009Z,99.90
2018-07-17T18:07:15.428Z,99.90
2018-07-17T18:09:43.977Z,99.90
2018-07-17T18:12:12.642Z,99.90
2018-07-17T18:14:41.676Z,99.90
2018-07-17T18:17:10.926Z,99.90
2018-07-17T18:19:39.550Z,99.90
2018-07-17T18:22:08.157Z,99.90
2018-07-17T18:24:36.815Z,99.90
2018-07-17T18:27:05.540Z,99.90
2018-07-17T18:29:34.825Z,99.90
2018-07-17T18:32:03.760Z,99.90
2018-07-17T18:37:01.677Z,99.90
2018-07-17T18:39:30.242Z,99.90
2018-07-17T18:41:58.814Z,99.90
2018-07-17T18:49:24.665Z,99.90
2018-07-17T18:54:21.945Z,99.90
2018-07-17T18:59:19.834Z,99.90
2018-07-17T19:04:16.609Z,99.90
2018-07-17T19:06:45.181Z,99.90
2018-07-17T19:09:14.325Z,99.90
2018-07-17T19:11:42.959Z,99.90
2018-07-17T19:14:11.501Z,99.90
2018-07-17T19:16:40.778Z,99.90
2018-07-17T19:19:09.343Z,99.90
2018-07-17T19:21:38.655Z,99.90
2018-07-17T19:24:07.247Z,99.90
2018-07-17T19:26:35.905Z,99.90
2018-07-17T19:31:32.737Z,99.90
2018-07-17T19:34:01.285Z,99.90
2018-07-17T19:36:30.688Z,99.90
2018-07-17T19:38:59.250Z,99.90
2018-07-17T19:41:27.852Z,99.90
2018-07-17T19:43:56.385Z,99.90
2018-07-17T19:46:24.970Z,99.90
2018-07-17T19:48:53.507Z,99.90
2018-07-17T19:51:22.053Z,99.90
2018-07-17T19:56:18.826Z,99.90
2018-07-17T20:01:15.606Z,99.90
2018-07-17T20:03:44.155Z,99.90
2018-07-17T20:08:40.965Z,99.90
2018-07-17T20:11:09.500Z,99.90
2018-07-17T20:13:38.021Z,99.90
2018-07-17T20:16:07.245Z,99.90
2018-07-17T20:18:35.797Z,99.90
2018-07-17T20:21:04.382Z,99.90
2018-07-17T20:23:32.925Z,99.90
2018-07-17T20:28:30.369Z,99.90
2018-07-17T20:30:59.681Z,99.90
2018-07-17T20:33:28.224Z,99.90
2018-07-17T20:35:57.042Z,99.90
2018-07-17T20:38:26.292Z,99.90
2018-07-17T20:40:55.560Z,99.90
2018-07-17T20:43:24.116Z,99.90
2018-07-17T20:45:52.673Z,99.90
2018-07-17T20:48:21.222Z,99.90
2018-07-17T20:50:50.312Z,99.90
2018-07-17T20:53:18.981Z,99.90
2018-07-17T20:55:47.507Z,99.90
2018-07-17T20:58:16.107Z,99.90
2018-07-17T21:00:45.133Z,99.90
2018-07-17T21:03:14.317Z,99.90
2018-07-17T21:05:42.878Z,99.90
2018-07-17T21:08:11.610Z,99.90
2018-07-17T21:10:40.148Z,99.90
2018-07-17T21:13:09.401Z,99.90
2018-07-17T21:15:37.945Z,99.90
2018-07-17T21:18:06.519Z,99.90
2018-07-17T21:20:35.606Z,99.90
2018-07-17T21:23:04.754Z,99.90
2018-07-17T21:25:33.986Z,99.90
2018-07-17T21:30:31.379Z,99.90
2018-07-17T21:32:59.993Z,99.90
2018-07-17T21:35:28.524Z,99.90
2018-07-17T21:40:25.282Z,99.90
2018-07-17T21:45:22.168Z,99.90
2018-07-17T21:47:51.308Z,99.90
2018-07-17T21:50:19.878Z,99.90
2018-07-17T21:52:49.177Z,99.90
2018-07-17T21:55:18.343Z,99.90
2018-07-17T21:57:47.542Z,99.90
2018-07-17T22:00:16.123Z,99.90
2018-07-17T22:05:12.849Z,99.90
2018-07-17T22:07:41.409Z,99.90
2018-07-17T22:10:10.556Z,99.90
2018-07-17T22:15:07.421Z,99.90
2018-07-17T22:20:05.168Z,99.90
2018-07-17T22:22:33.746Z,99.90
2018-07-17T22:25:03.125Z,99.90
2018-07-17T22:27:31.684Z,99.90
2018-07-17T22:30:00.217Z,99.90
2018-07-17T22:32:28.839Z,99.90
2018-07-17T22:37:25.598Z,99.90
2018-07-17T22:42:22.359Z,99.90
2018-07-17T22:47:19.109Z,99.90
2018-07-17T22:52:15.864Z,99.90
2018-07-17T22:54:44.962Z,99.90
2018-07-17T22:59:41.737Z,99.90
2018-07-17T23:04:38.617Z,99.90
2018-07-17T23:07:07.174Z,99.90
2018-07-17T23:12:04.014Z,99.90
2018-07-17T23:14:32.573Z,99.90
2018-07-17T23:17:01.150Z,99.90
2018-07-17T23:19:29.713Z,99.90
2018-07-17T23:21:58.911Z,99.90
2018-07-17T23:24:27.489Z,99.90
2018-07-17T23:26:56.042Z,99.90
2018-07-17T23:29:24.601Z,99.90
2018-07-17T23:31:53.161Z,99.90
2018-07-17T23:34:21.753Z,99.90
2018-07-17T23:36:50.310Z,99.90
2018-07-17T23:39:18.885Z,99.90
2018-07-17T23:44:15.645Z,99.90
2018-07-17T23:46:44.172Z,99.90
2018-07-17T23:49:18.210Z,99.90
2018-07-17T23:51:46.729Z,99.90
2018-07-17T23:54:15.305Z,99.90
2018-07-17T23:56:43.837Z,99.90
2018-07-17T23:59:12.383Z,99.90
